^^
Grace C. Lehan Memorial Weather Station Historical Data
Daily Summary for September 7, 2021 Units:  English    Metric   Both
Daily Weekly Monthly Yearly
  High: Low: Average:
Temperature: 73 °F 52.3 °F 61.5 °F
Dew Point: 62.3 °F 51 °F 56.5 °F
Humidity: 97% 60.5% 85%
Wind Speed: 2.6mph 0mph 0.1mph
Wind Gust: 5mph - -
Wind- - East
Pressure: 30.31 in 30.14 in -
Precipitation: 0.00 in    
 
 
Tabular Data for September 7, 2021
Time Temperature Dew Point Pressure Wind Wind Speed Wind Gust Humidity Rainfall Rate (Hourly) solar
00:00 57.6 °F 55.6 °F 30.30 in Calm     93% 0.00 in 0 W/m2
00:09 57.4 °F 55.4 °F 30.30 in Calm     93% 0.00 in 0 W/m2
00:14 57.3 °F 55.3 °F 30.30 in Calm     93% 0.00 in 0 W/m2
00:19 57.1 °F 55.1 °F 30.30 in Calm     93% 0.00 in 0 W/m2
00:24 57 °F 55 °F 30.30 in Calm     93% 0.00 in 0 W/m2
00:29 56.9 °F 55 °F 30.30 in Calm     93.4% 0.00 in 0 W/m2
00:34 56.8 °F 55.1 °F 30.30 in Calm     94% 0.00 in 0 W/m2
00:39 56.7 °F 55 °F 30.30 in Calm     94% 0.00 in 0 W/m2
00:44 56.6 °F 54.9 °F 30.30 in Calm     94% 0.00 in 0 W/m2
00:49 56.5 °F 54.8 °F 30.30 in Calm     94% 0.00 in 0 W/m2
00:54 56.4 °F 54.7 °F 30.29 in Calm     94% 0.00 in 0 W/m2
00:59 56.4 °F 54.7 °F 30.29 in Calm     94% 0.00 in 0 W/m2
01:04 56.3 °F 54.6 °F 30.29 in Calm     94% 0.00 in 0 W/m2
01:09 56.2 °F 54.5 °F 30.29 in Calm     94% 0.00 in 0 W/m2
01:14 56.2 °F 54.5 °F 30.29 in Calm     94% 0.00 in 0 W/m2
01:19 56.1 °F 54.4 °F 30.29 in Calm     94% 0.00 in 0 W/m2
01:24 56 °F 54.3 °F 30.29 in Calm     94% 0.00 in 0 W/m2
01:29 55.9 °F 54.2 °F 30.29 in Calm     94% 0.00 in 0 W/m2
01:34 55.8 °F 54.1 °F 30.29 in Calm     94% 0.00 in 0 W/m2
01:39 55.7 °F 54 °F 30.29 in Calm     94% 0.00 in 0 W/m2
01:44 55.5 °F 53.9 °F 30.29 in Calm     94% 0.00 in 0 W/m2
01:49 55.4 °F 53.7 °F 30.29 in Calm     94% 0.00 in 0 W/m2
01:54 55.3 °F 53.6 °F 30.29 in Calm     94% 0.00 in 0 W/m2
01:59 55.2 °F 53.5 °F 30.29 in Calm     94% 0.00 in 0 W/m2
02:04 55.1 °F 53.4 °F 30.30 in Calm     94% 0.00 in 0 W/m2
02:09 55 °F 53.3 °F 30.30 in Calm     94% 0.00 in 0 W/m2
02:14 54.9 °F 53.2 °F 30.29 in Calm     94% 0.00 in 0 W/m2
02:19 54.8 °F 53.1 °F 30.29 in Calm     94% 0.00 in 0 W/m2
02:24 54.8 °F 53.1 °F 30.30 in Calm     94% 0.00 in 0 W/m2
02:29 54.7 °F 53 °F 30.30 in Calm     94% 0.00 in 0 W/m2
02:34 54.6 °F 52.9 °F 30.29 in Calm     94% 0.00 in 0 W/m2
02:39 54.5 °F 53.1 °F 30.29 in Calm     94.9% 0.00 in 0 W/m2
02:44 54.5 °F 53.1 °F 30.29 in Calm     95% 0.00 in 0 W/m2
02:49 54.4 °F 53 °F 30.29 in Calm     95% 0.00 in 0 W/m2
02:54 54.4 °F 53 °F 30.29 in Calm     95% 0.00 in 0 W/m2
02:59 54.4 °F 53 °F 30.28 in Calm     95% 0.00 in 0 W/m2
03:04 54.3 °F 52.9 °F 30.28 in Calm     95% 0.00 in 0 W/m2
03:09 54.2 °F 52.8 °F 30.28 in Calm     95% 0.00 in 0 W/m2
03:14 54.1 °F 52.7 °F 30.28 in Calm     95% 0.00 in 0 W/m2
03:19 54 °F 52.6 °F 30.28 in Calm     95% 0.00 in 0 W/m2
03:24 54 °F 52.6 °F 30.28 in Calm     95% 0.00 in 0 W/m2
03:29 53.9 °F 52.5 °F 30.28 in Calm     95% 0.00 in 0 W/m2
03:34 53.8 °F 52.4 °F 30.28 in Calm     95% 0.00 in 0 W/m2
03:39 53.7 °F 52.3 °F 30.28 in Calm     95% 0.00 in 0 W/m2
03:44 53.7 °F 52.3 °F 30.28 in Calm     95% 0.00 in 0 W/m2
03:49 53.7 °F 52.3 °F 30.28 in Calm     95% 0.00 in 0 W/m2
03:54 53.6 °F 52.2 °F 30.28 in Calm     95% 0.00 in 0 W/m2
03:59 53.5 °F 52.1 °F 30.28 in Calm     95% 0.00 in 0 W/m2
04:09 53.4 °F 52 °F 30.28 in Calm     95% 0.00 in 0 W/m2
04:14 53.2 °F 51.9 °F 30.28 in Calm     95% 0.00 in 0 W/m2
04:19 53.1 °F 51.7 °F 30.28 in Calm     95% 0.00 in 0 W/m2
04:24 52.9 °F 51.5 °F 30.28 in Calm     95% 0.00 in 0 W/m2
04:29 52.8 °F 51.4 °F 30.28 in Calm     95% 0.00 in 0 W/m2
04:34 52.8 °F 51.4 °F 30.28 in Calm     95% 0.00 in 0 W/m2
04:39 52.8 °F 51.4 °F 30.28 in Calm     95% 0.00 in 0 W/m2
04:44 52.8 °F 51.4 °F 30.28 in Calm     95% 0.00 in 0 W/m2
04:49 52.8 °F 51.4 °F 30.28 in Calm     95% 0.00 in 0 W/m2
04:54 52.8 °F 51.4 °F 30.28 in Calm     95% 0.00 in 0 W/m2
04:59 52.9 °F 51.7 °F 30.28 in Calm     95.7% 0.00 in 0 W/m2
05:04 53 °F 51.9 °F 30.29 in Calm     95.8% 0.00 in 0 W/m2
05:09 53.1 °F 52 °F 30.29 in Calm     96% 0.00 in 0 W/m2
05:14 53.2 °F 52 °F 30.29 in Calm     96% 0.00 in 0 W/m2
05:19 53.2 °F 52 °F 30.29 in Calm     95.9% 0.00 in 0 W/m2
05:24 53.1 °F 51.7 °F 30.29 in Calm     95% 0.00 in 0 W/m2
05:29 53.1 °F 51.7 °F 30.29 in Calm     95% 0.00 in 0 W/m2
05:34 53 °F 51.8 °F 30.29 in Calm     95.7% 0.00 in 0 W/m2
05:39 52.9 °F 51.5 °F 30.29 in Calm     95.3% 0.00 in 0 W/m2
05:44 52.8 °F 51.4 °F 30.29 in Calm     95% 0.00 in 0 W/m2
05:49 52.6 °F 51.2 °F 30.29 in Calm     95% 0.00 in 0 W/m2
05:54 52.6 °F 51.2 °F 30.29 in Calm     95% 0.00 in 0 W/m2
05:59 52.4 °F 51 °F 30.29 in Calm     95% 0.00 in 0 W/m2
06:04 52.4 °F 51 °F 30.29 in Calm     95% 0.00 in 0 W/m2
06:09 52.3 °F 51 °F 30.29 in Calm     95.2% 0.00 in 0 W/m2
06:14 52.3 °F 51.2 °F 30.29 in Calm     96% 0.00 in 0 W/m2
06:19 52.3 °F 51.2 °F 30.29 in Calm     96% 0.00 in 0 W/m2
06:24 52.4 °F 51.3 °F 30.29 in Calm     96% 0.00 in 0 W/m2
06:29 52.4 °F 51.3 °F 30.29 in Calm     96% 0.00 in 0 W/m2
06:34 52.5 °F 51.4 °F 30.29 in Calm     96% 0.00 in 0 W/m2
06:39 52.5 °F 51.4 °F 30.29 in Calm     96% 0.00 in 0 W/m2
06:44 52.5 °F 51.4 °F 30.29 in Calm     96% 0.00 in 0 W/m2
06:49 52.5 °F 51.4 °F 30.29 in Calm     96% 0.00 in 0 W/m2
06:54 52.6 °F 51.5 °F 30.29 in Calm     96% 0.00 in 0 W/m2
06:59 52.7 °F 51.6 °F 30.29 in Calm     96% 0.00 in 0 W/m2
07:04 52.7 °F 51.6 °F 30.29 in Calm     96% 0.00 in 0 W/m2
07:09 52.8 °F 51.7 °F 30.29 in Calm     96% 0.00 in 5 W/m2
07:14 52.9 °F 51.8 °F 30.30 in Calm     96% 0.00 in 9 W/m2
07:19 53 °F 51.9 °F 30.30 in Calm     96% 0.00 in 9 W/m2
07:24 53.1 °F 52 °F 30.30 in Calm     96% 0.00 in 14 W/m2
07:29 53.1 °F 52 °F 30.30 in Calm     96% 0.00 in 19 W/m2
07:34 53.1 °F 52 °F 30.30 in Calm     96% 0.00 in 19 W/m2
07:39 53.1 °F 52 °F 30.30 in Calm     96% 0.00 in 26 W/m2
07:44 53.1 °F 52 °F 30.30 in Calm     96% 0.00 in 28 W/m2
07:49 53.2 °F 52.1 °F 30.30 in Calm     96% 0.00 in 33 W/m2
07:54 53.2 °F 52.1 °F 30.31 in Calm     96% 0.00 in 44 W/m2
07:59 53.3 °F 52.2 °F 30.31 in Calm   1 mph 96% 0.00 in 46 W/m2
08:00 53.4 °F 52.3 °F 30.30 in Calm   1 mph 96% 0.00 in 39 W/m2
08:09 53.5 °F 52.4 °F 30.31 in Calm     96% 0.00 in 54 W/m2
08:14 53.5 °F 52.4 °F 30.30 in Calm     96% 0.00 in 60 W/m2
08:19 53.3 °F 52.2 °F 30.30 in Calm     96% 0.00 in 69 W/m2
08:24 53.3 °F 52.2 °F 30.30 in Calm     96% 0.00 in 76 W/m2
08:29 53.5 °F 52.4 °F 30.30 in Calm     96% 0.00 in 72 W/m2
08:34 53.9 °F 52.8 °F 30.30 in Calm     96% 0.00 in 81 W/m2
08:39 54 °F 52.9 °F 30.31 in Calm     96% 0.00 in 81 W/m2
08:44 54 °F 52.8 °F 30.31 in Calm     96% 0.00 in 97 W/m2
08:49 53.9 °F 52.8 °F 30.30 in Calm     96% 0.00 in 123 W/m2
08:54 53.9 °F 52.8 °F 30.30 in Calm     96% 0.00 in 125 W/m2
08:59 53.9 °F 52.8 °F 30.30 in Calm     96% 0.00 in 123 W/m2
09:04 54.2 °F 53.3 °F 30.30 in Calm     96.6% 0.00 in 116 W/m2
09:09 54.6 °F 53.8 °F 30.30 in Calm     97% 0.00 in 118 W/m2
09:14 55.1 °F 54.3 °F 30.30 in Calm     97% 0.00 in 120 W/m2
09:19 55.1 °F 54.3 °F 30.30 in Calm     97% 0.00 in 128 W/m2
09:24 55.2 °F 54.4 °F 30.29 in Calm     97% 0.00 in 178 W/m2
09:29 55.5 °F 54.7 °F 30.29 in Calm     97% 0.00 in 193 W/m2
09:34 55.5 °F 54.7 °F 30.29 in Calm     97% 0.00 in 162 W/m2
09:39 55.6 °F 54.8 °F 30.30 in Calm     97% 0.00 in 221 W/m2
09:44 55.6 °F 54.8 °F 30.30 in Calm     97% 0.00 in 185 W/m2
09:49 55.7 °F 54.9 °F 30.30 in Calm     97% 0.00 in 199 W/m2
09:54 55.7 °F 54.9 °F 30.30 in Calm     97% 0.00 in 199 W/m2
09:59 55.8 °F 55 °F 30.30 in North 0.2 mph 3 mph 97% 0.00 in 320 W/m2
10:04 56.3 °F 55.5 °F 30.30 in Calm   3 mph 97% 0.00 in 334 W/m2
10:09 56.6 °F 55.8 °F 30.30 in North 0.1 mph 2 mph 97% 0.00 in 320 W/m2
10:14 56.9 °F 56 °F 30.30 in Calm   2 mph 97% 0.00 in 281 W/m2
10:19 57.2 °F 56.4 °F 30.30 in Calm   2 mph 97% 0.00 in 295 W/m2
10:24 57.5 °F 56.7 °F 30.30 in Calm   2 mph 97% 0.00 in 320 W/m2
10:29 57.9 °F 57 °F 30.30 in Calm   2 mph 97% 0.00 in 320 W/m2
10:34 58.5 °F 57.7 °F 30.30 in Calm   2 mph 97% 0.00 in 640 W/m2
10:39 59.4 °F 58.6 °F 30.30 in Calm     97% 0.00 in 631 W/m2
10:44 60.4 °F 59.6 °F 30.29 in North 0.1 mph 2 mph 97% 0.00 in 633 W/m2
10:49 61 °F 60.2 °F 30.29 in Calm   2 mph 97% 0.00 in 636 W/m2
10:54 62.4 °F 61.4 °F 30.29 in North 0.1 mph 2 mph 96.5% 0.00 in 645 W/m2
10:59 63.5 °F 61.8 °F 30.29 in Calm   2 mph 94% 0.00 in 657 W/m2
11:04 64.9 °F 62.2 °F 30.29 in Calm   2 mph 91.1% 0.00 in 664 W/m2
11:09 65.9 °F 61.8 °F 30.28 in North 0.1 mph 2 mph 86.9% 0.00 in 670 W/m2
11:14 66.7 °F 62.1 °F 30.28 in Calm   2 mph 85.1% 0.00 in 677 W/m2
11:19 67.4 °F 62.3 °F 30.28 in Calm   2 mph 83.7% 0.00 in 684 W/m2
11:24 67.8 °F 61.5 °F 30.28 in Calm   2 mph 80.3% 0.00 in 686 W/m2
11:29 67.9 °F 61.3 °F 30.28 in NE 0.1 mph 3 mph 79.3% 0.00 in 469 W/m2
11:34 67.8 °F 60.9 °F 30.28 in NE 0.1 mph 3 mph 78.5% 0.00 in 246 W/m2
11:39 67.8 °F 61.2 °F 30.28 in Calm   2 mph 79.6% 0.00 in 218 W/m2
11:44 68 °F 61.5 °F 30.27 in NE 0.1 mph 2 mph 79.9% 0.00 in 190 W/m2
11:49 68.1 °F 61.1 °F 30.27 in Calm   2 mph 78.3% 0.00 in 83 W/m2
11:54 68.1 °F 61.1 °F 30.27 in NE 0.1 mph 3 mph 78.3% 0.00 in 267 W/m2
11:55 68.2 °F 61.4 °F 30.27 in Calm   3 mph 79% 0.00 in 188 W/m2
12:09 68.6 °F 61.3 °F 30.26 in Calm     77.6% 0.00 in 174 W/m2
12:14 68.6 °F 61 °F 30.26 in Calm     76.7% 0.00 in 218 W/m2
12:19 68.8 °F 61.3 °F 30.26 in Calm     77% 0.00 in 394 W/m2
12:24 69.1 °F 61.5 °F 30.26 in Calm   1 mph 76.8% 0.00 in 422 W/m2
12:29 69.5 °F 61.1 °F 30.26 in NE 0.1 mph 2 mph 74.7% 0.00 in 285 W/m2
12:34 69.6 °F 61.3 °F 30.26 in Calm   2 mph 74.8% 0.00 in 116 W/m2
12:39 69.8 °F 61 °F 30.25 in Calm   1 mph 73.8% 0.00 in 285 W/m2
12:44 69.9 °F 61.2 °F 30.25 in Calm   2 mph 73.9% 0.00 in 234 W/m2
12:49 69.9 °F 60.9 °F 30.25 in Calm   2 mph 72.9% 0.00 in 67 W/m2
12:54 69.8 °F 60 °F 30.25 in NE 0.1 mph 2 mph 71.1% 0.00 in 62 W/m2
12:59 69.7 °F 60.4 °F 30.24 in NE 0.3 mph 2 mph 72.2% 0.00 in 172 W/m2
13:04 69.7 °F 59.6 °F 30.24 in Calm   2 mph 70.2% 0.00 in 636 W/m2
13:09 69.9 °F 59.7 °F 30.24 in Calm     70% 0.00 in 594 W/m2
13:14 70.1 °F 59.3 °F 30.24 in Calm     68.6% 0.00 in 596 W/m2
13:19 70.3 °F 59.8 °F 30.24 in North 2.5 mph 5 mph 69.5% 0.00 in 552 W/m2
13:24 70.6 °F 59.6 °F 30.24 in Calm   5 mph 68.4% 0.00 in 253 W/m2
13:29 70.7 °F 59.2 °F 30.23 in SE 0.4 mph 5 mph 66.9% 0.00 in 253 W/m2
13:34 70.7 °F 59.4 °F 30.23 in Calm   5 mph 67.3% 0.00 in 86 W/m2
13:39 70.8 °F 59.6 °F 30.22 in Calm     67.7% 0.00 in 165 W/m2
13:44 70.8 °F 59.2 °F 30.22 in Calm     66.8% 0.00 in 70 W/m2
13:49 70.9 °F 60 °F 30.22 in Calm   1 mph 68.6% 0.00 in 95 W/m2
13:54 71.1 °F 60.1 °F 30.22 in SE 0.3 mph 3 mph 68.4% 0.00 in 109 W/m2
13:59 71.3 °F 60.1 °F 30.21 in SSE 0.2 mph 3 mph 67.7% 0.00 in 91 W/m2
14:04 71.6 °F 60 °F 30.21 in Calm   3 mph 66.8% 0.00 in 146 W/m2
14:09 71.8 °F 60.2 °F 30.21 in SE 0.4 mph 2 mph 66.9% 0.00 in 70 W/m2
14:14 72 °F 60 °F 30.21 in ESE 1.8 mph 4 mph 66.1% 0.00 in 70 W/m2
14:19 72 °F 59.7 °F 30.21 in East 0.4 mph 4 mph 65.3% 0.00 in 90 W/m2
14:24 71.9 °F 59.6 °F 30.21 in Calm   4 mph 65.2% 0.00 in 113 W/m2
14:29 71.7 °F 59.1 °F 30.20 in East 0.1 mph 4 mph 64.5% 0.00 in 113 W/m2
14:34 71.7 °F 59.5 °F 30.20 in Calm   4 mph 65.5% 0.00 in 83 W/m2
14:39 71.9 °F 59.8 °F 30.20 in South 0.3 mph 4 mph 65.7% 0.00 in 91 W/m2
14:44 72.1 °F 59.4 °F 30.20 in South 0.6 mph 4 mph 64.3% 0.00 in 79 W/m2
14:49 72.2 °F 59.2 °F 30.20 in South 1.2 mph 4 mph 63.7% 0.00 in 121 W/m2
14:54 72.2 °F 59.2 °F 30.19 in SSW 1.2 mph 4 mph 63.6% 0.00 in 88 W/m2
14:59 72.2 °F 59.5 °F 30.19 in WSW 2.6 mph 5 mph 64.5% 0.00 in 62 W/m2
15:04 72.1 °F 59.7 °F 30.19 in NW 1.6 mph 5 mph 65% 0.00 in 79 W/m2
15:09 72.2 °F 59.4 °F 30.19 in NNW 0.2 mph 4 mph 64.1% 0.00 in 77 W/m2
15:14 72.3 °F 59.5 °F 30.19 in NNW 0.6 mph 4 mph 64.1% 0.00 in 74 W/m2
15:19 72.4 °F 58.8 °F 30.19 in NNE 1.3 mph 4 mph 62.4% 0.00 in 114 W/m2
15:24 72.6 °F 59.3 °F 30.19 in NNE 0.9 mph 4 mph 63% 0.00 in 204 W/m2
15:29 72.8 °F 59.2 °F 30.19 in NNE 0.4 mph 4 mph 62.3% 0.00 in 202 W/m2
15:34 72.9 °F 59.4 °F 30.18 in NNE 0.4 mph 4 mph 62.8% 0.00 in 100 W/m2
15:39 73 °F 59.2 °F 30.18 in NNE 0.5 mph 3 mph 61.9% 0.00 in 118 W/m2
15:44 73 °F 59.3 °F 30.18 in NNE 1.1 mph 3 mph 62.2% 0.00 in 44 W/m2
15:49 73 °F 58.6 °F 30.18 in NNE 0.4 mph 3 mph 60.7% 0.00 in 28 W/m2
15:54 72.9 °F 58.8 °F 30.18 in NNE 0.6 mph 3 mph 61.2% 0.00 in 26 W/m2
15:59 72.8 °F 58.5 °F 30.18 in NNE 0.4 mph 3 mph 60.9% 0.00 in 26 W/m2
16:00 72.8 °F 58.6 °F 30.18 in Calm   3 mph 61% 0.00 in 25 W/m2
16:09 72.7 °F 59.1 °F 30.17 in NNE 0.4 mph 2 mph 62.4% 0.00 in 25 W/m2
16:14 72.6 °F 58.2 °F 30.17 in Calm   2 mph 60.6% 0.00 in 25 W/m2
16:19 72.5 °F 58 °F 30.17 in NNE 0.1 mph 2 mph 60.5% 0.00 in 23 W/m2
16:24 72.4 °F 58.3 °F 30.17 in Calm   2 mph 61.2% 0.00 in 23 W/m2
16:29 72.4 °F 58.3 °F 30.17 in NNE 0.4 mph 2 mph 61.2% 0.00 in 23 W/m2
16:34 72.3 °F 58.6 °F 30.17 in Calm   2 mph 62% 0.00 in 23 W/m2
16:39 72.3 °F 59 °F 30.17 in NNE 0.3 mph 3 mph 63% 0.00 in 21 W/m2
16:44 72.2 °F 59 °F 30.17 in NNE 0.5 mph 3 mph 63.2% 0.00 in 21 W/m2
16:49 72.2 °F 58.5 °F 30.17 in Calm   3 mph 62% 0.00 in 21 W/m2
16:54 72.2 °F 58.7 °F 30.17 in Calm   3 mph 62.5% 0.00 in 19 W/m2
16:59 72.1 °F 58.8 °F 30.16 in Calm   3 mph 63% 0.00 in 19 W/m2
17:04 72 °F 58.8 °F 30.16 in Calm   3 mph 63.4% 0.00 in 19 W/m2
17:09 71.8 °F 59 °F 30.16 in Calm   1 mph 64% 0.00 in 19 W/m2
17:14 71.7 °F 58.9 °F 30.16 in Calm   1 mph 64% 0.00 in 18 W/m2
17:19 71.6 °F 59.4 °F 30.16 in Calm   1 mph 65.4% 0.00 in 18 W/m2
17:24 71.5 °F 59.3 °F 30.16 in Calm   1 mph 65.4% 0.00 in 16 W/m2
17:29 71.3 °F 58.9 °F 30.16 in Calm   1 mph 65% 0.00 in 16 W/m2
17:34 71.2 °F 59.1 °F 30.16 in Calm   1 mph 65.7% 0.00 in 14 W/m2
17:39 71 °F 59.1 °F 30.16 in Calm     66% 0.00 in 14 W/m2
17:44 70.9 °F 59.2 °F 30.16 in Calm     66.6% 0.00 in 12 W/m2
17:49 70.7 °F 59.3 °F 30.16 in Calm     67% 0.00 in 12 W/m2
17:54 70.6 °F 59.1 °F 30.16 in Calm     67.1% 0.00 in 11 W/m2
17:59 70.4 °F 59.3 °F 30.16 in Calm     68% 0.00 in 9 W/m2
18:04 70.2 °F 59.5 °F 30.16 in Calm     68.8% 0.00 in 7 W/m2
18:09 70 °F 59.4 °F 30.16 in Calm     69% 0.00 in 5 W/m2
18:14 69.7 °F 59.2 °F 30.16 in Calm     69.2% 0.00 in 5 W/m2
18:19 69.5 °F 59.2 °F 30.16 in Calm     69.8% 0.00 in 0 W/m2
18:24 69.3 °F 59.2 °F 30.16 in Calm     70.3% 0.00 in 0 W/m2
18:29 69.1 °F 59.4 °F 30.16 in Calm     71.3% 0.00 in 0 W/m2
18:34 68.9 °F 59.8 °F 30.16 in Calm     73% 0.00 in 0 W/m2
18:39 68.6 °F 60 °F 30.16 in Calm     74% 0.00 in 0 W/m2
18:44 68.3 °F 59.9 °F 30.16 in Calm     74.5% 0.00 in 0 W/m2
18:49 67.9 °F 59.7 °F 30.16 in Calm     75% 0.00 in 0 W/m2
18:54 67.5 °F 59.7 °F 30.16 in Calm     75.8% 0.00 in 0 W/m2
18:59 67.2 °F 59.8 °F 30.16 in Calm     77% 0.00 in 0 W/m2
19:04 66.9 °F 59.7 °F 30.16 in Calm     77.8% 0.00 in 0 W/m2
19:09 66.5 °F 59.6 °F 30.16 in Calm     78.3% 0.00 in 0 W/m2
19:14 66.2 °F 59.5 °F 30.16 in Calm     79% 0.00 in 0 W/m2
19:19 65.9 °F 59.6 °F 30.16 in Calm     80% 0.00 in 0 W/m2
19:24 65.6 °F 59.5 °F 30.16 in Calm     80.5% 0.00 in 0 W/m2
19:29 65.4 °F 59.5 °F 30.16 in Calm     81.3% 0.00 in 0 W/m2
19:34 65.2 °F 59.8 °F 30.16 in Calm     82.6% 0.00 in 0 W/m2
19:39 65 °F 59.7 °F 30.16 in Calm     83% 0.00 in 0 W/m2
19:44 64.8 °F 59.8 °F 30.16 in Calm     83.7% 0.00 in 0 W/m2
19:49 64.6 °F 59.7 °F 30.16 in Calm     84% 0.00 in 0 W/m2
19:54 64.5 °F 59.5 °F 30.16 in Calm     84% 0.00 in 0 W/m2
19:59 64.3 °F 59.4 °F 30.16 in Calm     84.3% 0.00 in 0 W/m2
20:00 64.2 °F 59.6 °F 30.16 in Calm     85% 0.00 in 0 W/m2
20:09 63.9 °F 59.3 °F 30.15 in Calm     85% 0.00 in 0 W/m2
20:14 63.7 °F 59.3 °F 30.15 in Calm     85.6% 0.00 in 0 W/m2
20:19 63.6 °F 59.3 °F 30.15 in Calm     86% 0.00 in 0 W/m2
20:24 63.4 °F 59.2 °F 30.15 in Calm     86.2% 0.00 in 0 W/m2
20:29 63.2 °F 59.3 °F 30.15 in Calm     86.9% 0.00 in 0 W/m2
20:34 63.1 °F 59.2 °F 30.15 in Calm     87% 0.00 in 0 W/m2
20:39 62.9 °F 59 °F 30.15 in Calm     87% 0.00 in 0 W/m2
20:44 62.8 °F 59.1 °F 30.15 in Calm     87.8% 0.00 in 0 W/m2
20:49 62.6 °F 59 °F 30.15 in Calm     88% 0.00 in 0 W/m2
20:54 62.5 °F 58.9 °F 30.15 in Calm     88% 0.00 in 0 W/m2
20:59 62.3 °F 58.8 °F 30.15 in Calm     88.2% 0.00 in 0 W/m2
21:04 62.2 °F 58.8 °F 30.15 in Calm     88.8% 0.00 in 0 W/m2
21:09 62 °F 58.7 °F 30.15 in Calm     89% 0.00 in 0 W/m2
21:14 61.8 °F 58.7 °F 30.15 in Calm     89.3% 0.00 in 0 W/m2
21:19 61.7 °F 58.8 °F 30.15 in Calm     90% 0.00 in 0 W/m2
21:24 61.6 °F 58.6 °F 30.15 in Calm     90% 0.00 in 0 W/m2
21:29 61.5 °F 58.5 °F 30.15 in Calm     90% 0.00 in 0 W/m2
21:34 61.4 °F 58.7 °F 30.15 in Calm     91% 0.00 in 0 W/m2
21:39 61.3 °F 58.6 °F 30.15 in Calm     91% 0.00 in 0 W/m2
21:44 61.2 °F 58.6 °F 30.15 in Calm     91% 0.00 in 0 W/m2
21:49 61.1 °F 58.4 °F 30.15 in Calm     91% 0.00 in 0 W/m2
21:54 60.9 °F 58.3 °F 30.15 in Calm     91% 0.00 in 0 W/m2
21:59 60.8 °F 58.1 °F 30.15 in Calm     91% 0.00 in 0 W/m2
22:04 60.7 °F 58.1 °F 30.15 in Calm     91% 0.00 in 0 W/m2
22:09 60.7 °F 58.3 °F 30.15 in Calm     91.7% 0.00 in 0 W/m2
22:14 60.6 °F 58.3 °F 30.14 in Calm     92% 0.00 in 0 W/m2
22:19 60.5 °F 58.2 °F 30.14 in Calm     92% 0.00 in 0 W/m2
22:24 60.4 °F 58.1 °F 30.14 in Calm     92% 0.00 in 0 W/m2
22:29 60.3 °F 58 °F 30.14 in Calm     92% 0.00 in 0 W/m2
22:34 60.2 °F 57.9 °F 30.14 in Calm     92% 0.00 in 0 W/m2
22:37 60.2 °F 57.9 °F 30.14 in Calm     92% 0.00 in 0 W/m2
23:00 59.8 °F 57.8 °F 30.14 in Calm     93% 0.00 in 0 W/m2
23:30 59.6 °F 57.6 °F 30.14 in Calm     93% 0.00 in 0 W/m2
Hartford County Weather
Compliments of Weather Underground - 4 mb